createdAt,value
2017-11-09T00:00:42.699Z,92.50
2017-11-09T00:03:10.850Z,92.50
2017-11-09T00:05:44.652Z,92.30
2017-11-09T00:08:12.784Z,92.30
2017-11-09T00:10:40.900Z,92.40
2017-11-09T00:13:09.052Z,92.80
2017-11-09T00:15:37.176Z,92.70
2017-11-09T00:18:06.096Z,92.70
2017-11-09T00:20:34.960Z,92.70
2017-11-09T00:23:03.104Z,92.60
2017-11-09T00:25:31.233Z,92.40
2017-11-09T00:27:59.418Z,92.50
2017-11-09T00:30:27.569Z,92.50
2017-11-09T00:32:55.707Z,92.70
2017-11-09T00:35:25.368Z,92.50
2017-11-09T00:37:53.482Z,92.50
2017-11-09T00:40:22.378Z,92.40
2017-11-09T00:42:52.056Z,92.30
2017-11-09T00:45:20.187Z,92.30
2017-11-09T00:47:49.177Z,92.40
2017-11-09T00:50:17.301Z,92.50
2017-11-09T00:52:45.435Z,92.60
2017-11-09T00:55:13.590Z,92.40
2017-11-09T00:57:42.495Z,92.00
2017-11-09T01:00:11.413Z,92.30
2017-11-09T01:02:39.527Z,92.30
2017-11-09T01:05:08.424Z,92.20
2017-11-09T01:07:37.324Z,92.20
2017-11-09T01:10:06.216Z,92.20
2017-11-09T01:12:35.113Z,92.00
2017-11-09T01:15:03.441Z,92.00
2017-11-09T01:17:31.600Z,92.20
2017-11-09T01:19:59.716Z,91.90
2017-11-09T01:22:28.642Z,91.80
2017-11-09T01:24:56.782Z,91.80
2017-11-09T01:27:25.691Z,92.00
2017-11-09T01:29:53.852Z,92.00
2017-11-09T01:32:22.742Z,92.10
2017-11-09T01:34:50.876Z,92.00
2017-11-09T01:37:19.007Z,91.90
2017-11-09T01:39:47.142Z,91.90
2017-11-09T01:42:16.050Z,91.60
2017-11-09T01:44:44.955Z,91.80
2017-11-09T01:47:13.093Z,91.70
2017-11-09T01:49:42.011Z,92.00
2017-11-09T01:52:10.889Z,91.90
2017-11-09T01:54:39.781Z,91.70
2017-11-09T01:57:07.930Z,91.60
2017-11-09T01:59:36.046Z,91.80
2017-11-09T02:02:04.181Z,91.90
2017-11-09T02:04:33.078Z,92.20
2017-11-09T02:07:01.985Z,92.00
2017-11-09T02:09:30.129Z,92.00
2017-11-09T02:11:58.281Z,91.90
2017-11-09T02:14:26.421Z,91.80
2017-11-09T02:16:54.549Z,91.80
2017-11-09T02:19:23.453Z,92.20
2017-11-09T02:21:52.341Z,92.00
2017-11-09T02:24:21.257Z,92.20
2017-11-09T02:26:49.374Z,92.20
2017-11-09T02:29:17.561Z,92.00
2017-11-09T02:31:47.174Z,92.20
2017-11-09T02:34:16.078Z,92.30
2017-11-09T02:36:44.253Z,92.20
2017-11-09T02:39:12.400Z,92.00
2017-11-09T02:41:41.312Z,92.40
2017-11-09T02:44:10.273Z,92.40
2017-11-09T02:46:38.406Z,92.40
2017-11-09T02:49:06.546Z,92.40
2017-11-09T02:51:35.433Z,92.10
2017-11-09T02:54:03.581Z,92.10
2017-11-09T02:56:32.474Z,91.90
2017-11-09T02:59:01.495Z,91.90
2017-11-09T03:01:30.476Z,91.70
2017-11-09T03:03:59.374Z,91.50
2017-11-09T03:06:28.281Z,91.40
2017-11-09T03:08:56.413Z,91.40
2017-11-09T03:11:24.561Z,91.70
2017-11-09T03:13:53.713Z,91.70
2017-11-09T03:16:22.663Z,91.70
2017-11-09T03:18:50.790Z,91.70
2017-11-09T03:21:18.970Z,91.70
2017-11-09T03:23:47.128Z,91.60
2017-11-09T03:26:15.270Z,91.60
2017-11-09T03:28:43.419Z,91.40
2017-11-09T03:31:11.559Z,91.50
2017-11-09T03:33:39.693Z,91.70
2017-11-09T03:36:08.604Z,91.50
2017-11-09T03:38:36.791Z,91.40
2017-11-09T03:41:04.911Z,91.50
2017-11-09T03:43:33.815Z,91.70
2017-11-09T03:46:02.718Z,91.70
2017-11-09T03:48:31.623Z,91.70
2017-11-09T03:50:59.749Z,91.70
2017-11-09T03:53:29.389Z,91.70
2017-11-09T03:55:58.285Z,91.60
2017-11-09T03:58:26.409Z,91.60
2017-11-09T04:00:56.068Z,91.30
2017-11-09T04:03:24.221Z,91.30
2017-11-09T04:05:52.377Z,91.30
2017-11-09T04:08:20.578Z,91.30
2017-11-09T04:10:48.753Z,91.10
2017-11-09T04:13:16.918Z,91.30
2017-11-09T04:15:45.118Z,91.40
2017-11-09T04:18:13.252Z,91.40
2017-11-09T04:20:41.390Z,91.40
2017-11-09T04:23:09.509Z,91.40
2017-11-09T04:25:37.659Z,91.50
2017-11-09T04:28:06.566Z,91.80
2017-11-09T04:30:35.570Z,91.40
2017-11-09T04:33:04.461Z,91.30
2017-11-09T04:35:33.374Z,91.20
2017-11-09T04:38:01.567Z,91.20
2017-11-09T04:40:29.698Z,91.30
2017-11-09T04:42:57.854Z,91.20
2017-11-09T04:45:26.747Z,91.30
2017-11-09T04:47:55.655Z,91.20
2017-11-09T04:50:23.781Z,91.10
2017-11-09T04:52:51.917Z,91.10
2017-11-09T04:55:20.049Z,91.40
2017-11-09T04:57:49.386Z,91.40
2017-11-09T05:00:17.579Z,91.30
2017-11-09T05:02:45.800Z,91.70
2017-11-09T05:05:14.782Z,92.00
2017-11-09T05:07:44.450Z,91.60
2017-11-09T05:10:12.571Z,91.60
2017-11-09T05:12:40.757Z,91.80
2017-11-09T05:15:08.893Z,91.90
2017-11-09T05:17:38.544Z,91.60
2017-11-09T05:20:06.770Z,91.60
2017-11-09T05:22:34.908Z,91.60
2017-11-09T05:25:03.079Z,91.70
2017-11-09T05:27:31.318Z,91.60
2017-11-09T05:30:00.418Z,91.70
2017-11-09T05:32:29.307Z,91.60
2017-11-09T05:34:58.229Z,91.80
2017-11-09T05:37:27.253Z,92.10
2017-11-09T05:39:55.425Z,92.00
2017-11-09T05:42:23.561Z,92.00
2017-11-09T05:44:51.670Z,92.10
2017-11-09T05:47:19.798Z,92.20
2017-11-09T05:49:47.980Z,92.20
2017-11-09T05:52:16.118Z,92.00
2017-11-09T05:54:44.333Z,91.90
2017-11-09T05:57:12.471Z,91.80
2017-11-09T05:59:41.369Z,91.90
2017-11-09T06:02:09.521Z,91.90
2017-11-09T06:04:37.638Z,91.70
2017-11-09T06:07:05.846Z,91.70
2017-11-09T06:09:34.003Z,91.80
2017-11-09T06:12:02.136Z,91.90
2017-11-09T06:14:30.274Z,91.80
2017-11-09T06:16:58.421Z,91.60
2017-11-09T06:19:26.553Z,91.90
2017-11-09T06:21:54.689Z,91.90
2017-11-09T06:24:23.601Z,92.20
2017-11-09T06:26:53.379Z,92.10
2017-11-09T06:29:21.521Z,92.10
2017-11-09T06:31:49.645Z,92.00
2017-11-09T06:34:18.584Z,92.30
2017-11-09T06:36:46.746Z,92.00
2017-11-09T06:39:14.904Z,91.90
2017-11-09T06:41:43.078Z,92.00
2017-11-09T06:44:11.998Z,91.80
2017-11-09T06:46:40.129Z,91.80
2017-11-09T06:49:08.268Z,91.90
2017-11-09T06:51:37.201Z,92.10
2017-11-09T06:54:05.325Z,92.10
2017-11-09T06:56:33.465Z,92.10
2017-11-09T06:59:01.594Z,92.00
2017-11-09T07:01:30.486Z,92.10
2017-11-09T07:03:59.397Z,92.10
2017-11-09T07:06:28.310Z,92.00
2017-11-09T07:08:56.436Z,92.00
2017-11-09T07:11:24.593Z,92.10
2017-11-09T07:13:52.824Z,92.20
2017-11-09T07:16:21.010Z,92.10
2017-11-09T07:18:49.145Z,92.20
2017-11-09T07:21:18.055Z,92.20
2017-11-09T07:23:46.208Z,92.10
2017-11-09T07:26:15.141Z,92.10
2017-11-09T07:28:43.281Z,92.10
2017-11-09T07:31:11.543Z,92.30
2017-11-09T07:33:40.449Z,92.60
2017-11-09T07:36:08.674Z,92.60
2017-11-09T07:38:36.861Z,92.60
2017-11-09T07:41:05.780Z,92.30
2017-11-09T07:43:33.951Z,92.40
2017-11-09T07:46:02.244Z,92.40
2017-11-09T07:48:30.442Z,92.50
2017-11-09T07:50:58.570Z,92.50
2017-11-09T07:53:26.762Z,92.40
2017-11-09T07:55:54.902Z,92.70
2017-11-09T07:58:23.825Z,93.00
2017-11-09T08:00:51.939Z,92.70
2017-11-09T08:03:21.057Z,92.80
2017-11-09T08:05:49.965Z,92.90
2017-11-09T08:08:18.122Z,92.90
2017-11-09T08:10:47.036Z,92.90
2017-11-09T08:13:15.182Z,92.80
2017-11-09T08:15:44.093Z,92.70
2017-11-09T08:18:12.252Z,92.70
2017-11-09T08:20:41.190Z,92.80
2017-11-09T08:23:09.326Z,92.80
2017-11-09T08:25:37.760Z,92.70
2017-11-09T08:28:07.119Z,92.80
2017-11-09T08:30:36.974Z,92.70
2017-11-09T08:33:07.703Z,92.70
2017-11-09T08:35:35.830Z,92.70
2017-11-09T08:38:05.092Z,93.00
2017-11-09T08:40:33.228Z,92.70
2017-11-09T08:43:01.357Z,92.70
2017-11-09T08:45:30.251Z,92.80
2017-11-09T08:47:59.172Z,93.10
2017-11-09T08:50:27.305Z,92.80
2017-11-09T08:52:56.220Z,93.00
2017-11-09T08:55:24.359Z,92.80
2017-11-09T08:57:52.482Z,92.70
2017-11-09T09:00:20.613Z,92.50
2017-11-09T09:02:49.601Z,92.60
2017-11-09T09:05:18.484Z,92.50
2017-11-09T09:07:46.636Z,92.50
2017-11-09T09:10:14.829Z,92.60
2017-11-09T09:12:43.747Z,92.70
2017-11-09T09:15:11.910Z,92.40
2017-11-09T09:17:40.808Z,92.60
2017-11-09T09:20:08.953Z,92.60
2017-11-09T09:22:37.905Z,92.60
2017-11-09T09:25:06.066Z,92.90
2017-11-09T09:27:34.221Z,92.70
2017-11-09T09:30:04.056Z,92.70
2017-11-09T09:32:36.455Z,92.80
2017-11-09T09:35:14.010Z,92.60
2017-11-09T09:37:44.497Z,92.50
2017-11-09T09:40:15.520Z,92.50
2017-11-09T09:42:43.656Z,92.70
2017-11-09T09:45:11.870Z,92.60
2017-11-09T09:47:40.008Z,92.40
2017-11-09T09:50:08.154Z,92.50
2017-11-09T09:52:38.344Z,92.40
2017-11-09T09:55:06.500Z,92.40
2017-11-09T09:57:34.630Z,92.50
2017-11-09T10:00:02.778Z,92.40
2017-11-09T10:02:31.664Z,92.60
2017-11-09T10:05:00.572Z,92.40
2017-11-09T10:07:28.728Z,92.40
2017-11-09T10:09:57.641Z,92.40
2017-11-09T10:12:25.903Z,92.30
2017-11-09T10:14:54.804Z,92.30
2017-11-09T10:17:22.967Z,92.30
2017-11-09T10:19:51.121Z,92.40
2017-11-09T10:22:20.171Z,92.60
2017-11-09T10:24:48.349Z,92.60
2017-11-09T10:27:16.486Z,92.60
2017-11-09T10:29:44.639Z,92.50
2017-11-09T10:32:12.771Z,92.20
2017-11-09T10:34:40.910Z,92.60
2017-11-09T10:37:09.117Z,92.30
2017-11-09T10:39:37.254Z,92.00
2017-11-09T10:42:05.538Z,92.10
2017-11-09T10:44:33.758Z,91.80
2017-11-09T10:47:01.888Z,91.90
2017-11-09T10:49:30.052Z,92.20
2017-11-09T10:51:58.439Z,92.20
2017-11-09T10:54:26.607Z,92.20
2017-11-09T10:56:54.754Z,92.10
2017-11-09T10:59:22.899Z,92.30
2017-11-09T11:01:51.028Z,92.10
2017-11-09T11:04:19.169Z,92.00
2017-11-09T11:06:47.309Z,92.30
2017-11-09T11:09:15.478Z,92.30
2017-11-09T11:11:43.599Z,91.80
2017-11-09T11:14:11.749Z,91.80
2017-11-09T11:16:40.652Z,92.20
2017-11-09T11:19:09.565Z,92.00
2017-11-09T11:21:37.689Z,92.00
2017-11-09T11:24:05.839Z,92.00
2017-11-09T11:26:33.982Z,92.00
2017-11-09T11:29:02.140Z,91.90
2017-11-09T11:31:30.298Z,92.10
2017-11-09T11:33:59.200Z,92.20
2017-11-09T11:36:27.350Z,92.20
2017-11-09T11:38:56.252Z,92.20
2017-11-09T11:41:25.165Z,92.20
2017-11-09T11:43:53.288Z,92.20
2017-11-09T11:46:22.375Z,91.90
2017-11-09T11:48:52.031Z,92.00
2017-11-09T11:51:20.157Z,92.30
2017-11-09T11:53:48.310Z,91.90
2017-11-09T11:56:17.216Z,91.90
2017-11-09T11:58:45.347Z,91.40
2017-11-09T12:01:13.474Z,91.70
2017-11-09T12:03:46.598Z,91.80
2017-11-09T12:06:14.732Z,91.80
2017-11-09T12:08:42.869Z,91.90
2017-11-09T12:11:11.011Z,92.00
2017-11-09T12:13:39.153Z,91.90
2017-11-09T12:16:07.286Z,91.80
2017-11-09T12:18:35.411Z,91.70
2017-11-09T12:21:04.313Z,92.00
2017-11-09T12:23:32.453Z,92.00
2017-11-09T12:26:00.614Z,92.10
2017-11-09T12:28:28.728Z,92.40
2017-11-09T12:30:58.672Z,92.40
2017-11-09T12:33:26.808Z,92.30
2017-11-09T12:35:55.715Z,91.70
2017-11-09T12:38:23.885Z,91.70
2017-11-09T12:40:52.013Z,92.20
2017-11-09T12:43:20.365Z,92.20
2017-11-09T12:45:48.486Z,92.00
2017-11-09T12:48:17.472Z,92.00
2017-11-09T12:50:45.638Z,92.00
2017-11-09T12:53:13.809Z,92.10
2017-11-09T12:55:41.970Z,91.90
2017-11-09T12:58:10.095Z,91.60
2017-11-09T13:00:38.242Z,92.20
2017-11-09T13:03:07.151Z,92.10
2017-11-09T13:05:35.303Z,92.10
2017-11-09T13:08:04.260Z,91.80
2017-11-09T13:10:32.404Z,91.80
2017-11-09T13:13:00.542Z,92.10
2017-11-09T13:15:29.554Z,91.80
2017-11-09T13:17:57.719Z,91.90
2017-11-09T13:20:26.678Z,91.90
2017-11-09T13:22:54.814Z,91.90
2017-11-09T13:25:22.949Z,91.80
2017-11-09T13:27:51.860Z,91.50
2017-11-09T13:30:20.003Z,91.50
2017-11-09T13:32:48.916Z,91.30
2017-11-09T13:35:17.061Z,91.20
2017-11-09T13:37:45.965Z,91.40
2017-11-09T13:40:14.857Z,91.60
2017-11-09T13:42:42.979Z,91.60
2017-11-09T13:45:11.129Z,91.60
2017-11-09T13:47:39.286Z,91.70
2017-11-09T13:50:07.466Z,91.50
2017-11-09T13:52:35.587Z,91.40
2017-11-09T13:55:03.711Z,91.60
2017-11-09T13:57:31.861Z,91.60
2017-11-09T14:00:00.764Z,91.80
2017-11-09T14:02:28.928Z,91.80
2017-11-09T14:04:57.811Z,91.40
2017-11-09T14:07:26.736Z,91.50
2017-11-09T14:09:54.862Z,91.50
2017-11-09T14:12:23.795Z,91.30
2017-11-09T14:14:51.946Z,91.30
2017-11-09T14:17:20.876Z,91.50
2017-11-09T14:19:49.029Z,91.50
2017-11-09T14:22:17.199Z,91.60
2017-11-09T14:24:45.343Z,91.60
2017-11-09T14:27:14.405Z,91.50
2017-11-09T14:29:43.312Z,91.50
2017-11-09T14:32:11.466Z,91.70
2017-11-09T14:34:39.577Z,91.70
2017-11-09T14:37:07.733Z,91.70
2017-11-09T14:39:36.638Z,91.70
2017-11-09T14:42:05.543Z,91.70
2017-11-09T14:44:33.680Z,91.70
2017-11-09T14:47:11.833Z,91.70
2017-11-09T14:49:39.994Z,91.90
2017-11-09T14:52:08.140Z,91.80
2017-11-09T14:54:37.072Z,91.80
2017-11-09T14:57:05.225Z,91.80
2017-11-09T14:59:33.366Z,92.20
2017-11-09T15:02:01.496Z,92.00
2017-11-09T15:04:29.650Z,92.10
2017-11-09T15:06:57.869Z,92.20
2017-11-09T15:09:26.022Z,92.30
2017-11-09T15:11:54.166Z,92.30
2017-11-09T15:14:22.312Z,92.10
2017-11-09T15:16:51.205Z,92.50
2017-11-09T15:19:20.121Z,92.50
2017-11-09T15:21:48.289Z,92.50
2017-11-09T15:24:16.423Z,92.60
2017-11-09T15:26:45.350Z,92.80
2017-11-09T15:29:13.480Z,92.50
2017-11-09T15:31:46.556Z,92.80
2017-11-09T15:34:14.686Z,92.40
2017-11-09T15:36:42.847Z,92.80
2017-11-09T15:39:10.972Z,92.70
2017-11-09T15:41:39.118Z,92.80
2017-11-09T15:44:07.270Z,92.70
2017-11-09T15:46:35.410Z,92.60
2017-11-09T15:49:03.541Z,92.60
2017-11-09T15:51:31.683Z,92.60
2017-11-09T15:53:59.834Z,92.30
2017-11-09T15:56:28.770Z,92.60
2017-11-09T15:58:56.927Z,92.60
2017-11-09T16:01:25.085Z,92.50
2017-11-09T16:03:53.223Z,92.50
2017-11-09T16:06:22.596Z,92.60
2017-11-09T16:08:50.751Z,92.70
2017-11-09T16:11:18.924Z,92.40
2017-11-09T16:13:47.062Z,92.40
2017-11-09T16:16:16.008Z,92.30
2017-11-09T16:18:44.214Z,92.30
2017-11-09T16:21:12.386Z,92.20
2017-11-09T16:23:40.500Z,92.20
2017-11-09T16:26:08.643Z,92.40
2017-11-09T16:28:37.555Z,92.60
2017-11-09T16:31:05.690Z,92.60
2017-11-09T16:33:33.852Z,92.50
2017-11-09T16:36:01.998Z,92.50
2017-11-09T16:38:30.195Z,92.60
2017-11-09T16:40:58.432Z,92.50
2017-11-09T16:43:26.607Z,92.50
2017-11-09T16:45:54.756Z,92.70
2017-11-09T16:48:22.931Z,92.80
2017-11-09T16:50:51.827Z,92.90
2017-11-09T16:53:22.137Z,92.80
2017-11-09T16:55:55.939Z,92.90
2017-11-09T16:58:24.833Z,92.90
2017-11-09T17:00:53.024Z,92.80
2017-11-09T17:03:21.149Z,92.80
2017-11-09T17:05:49.318Z,92.80
2017-11-09T17:08:17.481Z,93.10
2017-11-09T17:10:45.630Z,93.00
2017-11-09T17:13:13.805Z,92.90
2017-11-09T17:15:42.127Z,92.80
2017-11-09T17:18:23.753Z,92.80
2017-11-09T17:20:51.954Z,92.70
2017-11-09T17:23:20.120Z,92.60
2017-11-09T17:25:48.282Z,92.60
2017-11-09T17:28:16.556Z,92.60
2017-11-09T17:30:44.755Z,92.60
2017-11-09T17:33:12.894Z,92.90
2017-11-09T17:35:41.083Z,92.70
2017-11-09T17:38:09.202Z,92.60
2017-11-09T17:40:38.136Z,92.70
2017-11-09T17:43:06.264Z,92.70
2017-11-09T17:45:34.425Z,92.70
2017-11-09T17:48:02.548Z,92.60
2017-11-09T17:50:31.472Z,92.40
2017-11-09T17:53:00.885Z,92.40
2017-11-09T17:55:29.953Z,92.30
2017-11-09T17:57:58.516Z,92.40
2017-11-09T18:00:26.688Z,92.30
2017-11-09T18:02:54.808Z,92.30
2017-11-09T18:05:22.942Z,92.30
2017-11-09T18:07:51.677Z,92.20
2017-11-09T18:10:22.613Z,92.30
2017-11-09T18:12:50.759Z,92.30
2017-11-09T18:15:19.669Z,92.30
2017-11-09T18:17:47.807Z,92.30
2017-11-09T18:20:15.941Z,92.50
2017-11-09T18:22:44.836Z,92.60
2017-11-09T18:25:13.776Z,92.60
2017-11-09T18:27:42.771Z,92.70
2017-11-09T18:30:11.454Z,92.70
2017-11-09T18:32:39.615Z,92.40
2017-11-09T18:35:07.757Z,92.50
2017-11-09T18:37:35.930Z,92.40
2017-11-09T18:40:04.875Z,92.40
2017-11-09T18:42:33.010Z,92.40
2017-11-09T18:45:01.179Z,92.40
2017-11-09T18:47:29.484Z,92.60
2017-11-09T18:49:58.583Z,92.50
2017-11-09T18:52:26.763Z,92.60
2017-11-09T18:54:54.880Z,92.50
2017-11-09T18:57:23.155Z,92.40
2017-11-09T18:59:51.303Z,92.50
2017-11-09T19:02:19.469Z,92.50
2017-11-09T19:04:47.624Z,92.50
2017-11-09T19:07:15.857Z,92.30
2017-11-09T19:09:45.147Z,92.40
2017-11-09T19:12:14.044Z,92.60
2017-11-09T19:14:42.190Z,92.50
2017-11-09T19:17:11.131Z,92.60
2017-11-09T19:19:39.285Z,92.30
2017-11-09T19:22:07.421Z,92.20
2017-11-09T19:24:37.104Z,92.40
2017-11-09T19:27:05.855Z,92.40
2017-11-09T19:29:34.006Z,92.40
2017-11-09T19:32:02.936Z,92.10
2017-11-09T19:34:31.433Z,92.10
2017-11-09T19:36:59.590Z,92.10
2017-11-09T19:39:27.740Z,92.10
2017-11-09T19:41:55.902Z,92.20
2017-11-09T19:44:24.093Z,92.10
2017-11-09T19:46:52.643Z,92.10
2017-11-09T19:49:21.359Z,92.10
2017-11-09T19:51:49.508Z,92.20
2017-11-09T19:54:18.454Z,92.20
2017-11-09T19:56:47.454Z,92.20
2017-11-09T19:59:15.626Z,92.20
2017-11-09T20:01:43.792Z,92.20
2017-11-09T20:04:11.974Z,92.20
2017-11-09T20:06:40.139Z,92.00
2017-11-09T20:09:08.286Z,92.00
2017-11-09T20:11:36.442Z,92.00
2017-11-09T20:14:05.337Z,91.90
2017-11-09T20:16:33.520Z,91.90
2017-11-09T20:19:01.663Z,92.10
2017-11-09T20:21:30.575Z,91.90
2017-11-09T20:23:58.709Z,91.90
2017-11-09T20:26:27.001Z,92.20
2017-11-09T20:28:55.921Z,92.00
2017-11-09T20:31:24.065Z,91.90
2017-11-09T20:33:52.210Z,92.00
2017-11-09T20:36:20.409Z,92.40
2017-11-09T20:38:48.551Z,92.60
2017-11-09T20:41:16.687Z,92.50
2017-11-09T20:43:45.425Z,92.50
2017-11-09T20:46:14.342Z,92.80
2017-11-09T20:48:42.492Z,92.70
2017-11-09T20:51:11.409Z,92.60
2017-11-09T20:53:39.588Z,92.50
2017-11-09T20:56:07.757Z,92.30
2017-11-09T20:58:35.901Z,92.20
2017-11-09T21:01:04.814Z,92.00
2017-11-09T21:03:32.975Z,92.00
2017-11-09T21:06:01.899Z,91.80
2017-11-09T21:08:30.096Z,91.80
2017-11-09T21:10:58.247Z,91.60
2017-11-09T21:13:26.377Z,91.80
2017-11-09T21:15:55.502Z,92.10
2017-11-09T21:18:23.686Z,92.10
2017-11-09T21:20:51.849Z,91.90
2017-11-09T21:23:19.986Z,91.80
2017-11-09T21:25:48.143Z,91.80
2017-11-09T21:28:16.316Z,91.80
2017-11-09T21:30:44.462Z,92.30
2017-11-09T21:33:12.610Z,92.40
2017-11-09T21:35:41.271Z,92.20
2017-11-09T21:38:10.215Z,92.30
2017-11-09T21:40:38.344Z,92.20
2017-11-09T21:43:07.253Z,92.00
2017-11-09T21:45:35.456Z,92.00
2017-11-09T21:48:03.626Z,92.00
2017-11-09T21:50:31.781Z,92.10
2017-11-09T21:52:59.914Z,92.10
2017-11-09T21:55:28.853Z,92.00
2017-11-09T21:57:57.336Z,92.00
2017-11-09T22:00:25.470Z,91.80
2017-11-09T22:02:54.382Z,91.60
2017-11-09T22:05:22.522Z,91.60
2017-11-09T22:07:51.434Z,91.60
2017-11-09T22:10:20.125Z,91.50
2017-11-09T22:12:48.294Z,91.60
2017-11-09T22:15:16.435Z,91.50
2017-11-09T22:17:47.371Z,91.40
2017-11-09T22:20:16.254Z,91.10
2017-11-09T22:22:45.193Z,91.20
2017-11-09T22:25:13.362Z,91.20
2017-11-09T22:27:41.512Z,91.20
2017-11-09T22:30:10.454Z,91.30
2017-11-09T22:32:38.604Z,91.30
2017-11-09T22:35:06.757Z,91.10
2017-11-09T22:37:34.898Z,90.80
2017-11-09T22:40:03.829Z,90.50
2017-11-09T22:42:31.988Z,90.70
2017-11-09T22:45:00.884Z,90.40
2017-11-09T22:47:29.036Z,90.40
2017-11-09T22:49:57.947Z,90.50
2017-11-09T22:52:26.186Z,90.50
2017-11-09T22:54:54.298Z,90.40
2017-11-09T22:57:22.448Z,90.70
2017-11-09T22:59:51.355Z,90.60
2017-11-09T23:02:19.521Z,90.60
2017-11-09T23:04:48.469Z,90.90
2017-11-09T23:07:16.597Z,90.90
2017-11-09T23:09:44.734Z,90.20
2017-11-09T23:12:13.671Z,90.80
2017-11-09T23:14:41.797Z,90.70
2017-11-09T23:17:10.717Z,90.80
2017-11-09T23:19:38.857Z,90.80
2017-11-09T23:22:07.778Z,90.70
2017-11-09T23:24:35.978Z,90.70
2017-11-09T23:27:04.110Z,90.70
2017-11-09T23:29:33.018Z,90.10
2017-11-09T23:32:01.964Z,90.10
2017-11-09T23:34:30.110Z,89.70
2017-11-09T23:36:58.247Z,89.20
2017-11-09T23:39:26.400Z,88.70
2017-11-09T23:41:55.311Z,88.70
2017-11-09T23:44:23.484Z,88.70
2017-11-09T23:46:51.620Z,88.60
2017-11-09T23:49:19.757Z,88.40
2017-11-09T23:51:47.893Z,88.40
2017-11-09T23:54:16.024Z,88.60
2017-11-09T23:56:44.304Z,88.40
2017-11-09T23:59:12.440Z,88.50
